Strona główna
METAR-TAF:

METAR-TAF

Lotnisko :

Guilin, Chiny

Port lotniczy Guilin-Liangjiang

Szerokość geograficzna: 25-20N, Długość geograficzna: 110-18E, wysokość: 166 m

Aktualna obserwacja pogody

Raport powstał 36 minut temu, godzina 05:00 UTC
Wiatr 4 kt z kierunków zmiennych
Temperatura 18°C
Wilgotność 59%
Ciśnienie 1018 hPa
Widzialność: 4000 m
Przerywane chmury na wysokości 6600 ft
zmętnienie

METAR: ZGKL 180500Z VRB02MPS 4000 HZ BKN066 18/10 Q1018 NOSIG

czas: 13:36 (05:36 UTC)

Prognoza

Raport powstał 2 godziny i 25 minut temu, godzina 03:11 UTC
Prognoza ważna od 18 godzina 06 UTC do 19 godzina 06 UTC
Wiatr 6 kt od północny wschód
Widzialność: 3500 m
Rozproszone chmury na wysokości 3000 ft
Zachmurzenie całkowite na wysokości 5000 ft
zamglenie
Stopniowe zmiany
od 18 godzina 16 UTC do 18 godzina 17 UTC
Widzialność: 2500 m
Stopniowe zmiany
od 19 godzina 01 UTC do 19 godzina 02 UTC
Widzialność: 3500 m

TAF: ZGKL 180311Z 1806/1906 05003MPS 3500 BR SCT030 OVC050 TX17/1807Z TN13/1822Z BECMG 1816/1817 2500 BECMG 1901/1902 3500

Obserwacja i prognoza pogody dla ponad 4000 lotnisk (raport METAR i TAF).

Dostępne stacje oznaczono żółtymi i czerwonymi punktami na mapie.

Najedź kursorem aby zobaczyć nazwę stacji.

Kliknij aby zobaczyć obserwacje i prognozy pogody.

Aby zmienić mapę: kliknij na zielony przycisk z czarnym krzyżykiem, aby powiększyć; na zielony przycisk z myślnikiem, aby pomniejszyć; na zielone strzałki, aby przejść do map sąsiednich.


METAR-TAF: